← Back to dashboard

N207AX

Outside Mexico
Hex a1ac1a · Live map
Category since2026-09-05T06:41:53.698790+00:00 (2026-09-05 00:41:53 Mexico City time)
Airline / operatorOmni Air International
Aircraft typeBoeing 767-200ER
Max capacity~218 (operator-confirmed max configuration)
Tracking site profileView on Planespotters.net
Last known position55.0287, -12.7543
Estimated destinationOutside Mexico -- no longer heading to a Mexican destination

Status-change events this day

No status-change events recorded this day.

Pings for 2026-09-06 (Mexico City time)

2026-09-06T06:38:21.440199+00:00 -- 46.9035, 28.70082026-09-06T06:53:23.702730+00:00 -- 46.8426, 28.43082026-09-06T07:08:22.386929+00:00 -- 46.7751, 24.14142026-09-06T07:23:21.846933+00:00 -- 46.7025, 21.75512026-09-06T07:38:25.449831+00:00 -- 47.6362, 20.04342026-09-06T07:53:26.459969+00:00 -- 48.5970, 18.23642026-09-06T08:08:20.880421+00:00 -- 49.2977, 16.12472026-09-06T08:23:22.689904+00:00 -- 49.8182, 13.75762026-09-06T08:38:23.597906+00:00 -- 50.1535, 11.30072026-09-06T08:53:24.159234+00:00 -- 49.8081, 8.96712026-09-06T09:08:23.714107+00:00 -- 49.4351, 7.15022026-09-06T14:53:20.629409+00:00 -- 49.4449, 7.69032026-09-06T15:08:20.466799+00:00 -- 50.1575, 6.01202026-09-06T15:23:25.301620+00:00 -- 51.0402, 3.64372026-09-06T15:38:26.986018+00:00 -- 51.5541, 0.99082026-09-06T15:53:21.958610+00:00 -- 52.1530, -1.75282026-09-06T16:08:20.280423+00:00 -- 52.8405, -4.51882026-09-06T16:23:24.220440+00:00 -- 53.6223, -7.23212026-09-06T16:38:20.527343+00:00 -- 54.3888, -10.01202026-09-06T16:53:20.268850+00:00 -- 55.0287, -12.7543
first ping this day    most recent ping this day    Simple bounding-box plot (no map tiles, no internet needed) -- hover a point for its exact time/position.
Time (UTC)Time (Mexico City, UTC-6)PositionZoneAltitudeGround speed
⚠️ No signal from 2026-09-06 00:08:19 to 2026-09-06 00:38:21 (dark for ~30m)
2026-09-06T06:38:21.440199+00:002026-09-06 00:38:2146.9035, 28.700810975269 kts
2026-09-06T06:53:23.702730+00:002026-09-06 00:53:2346.8426, 28.430840000390 kts
2026-09-06T07:08:22.386929+00:002026-09-06 01:08:2246.7751, 24.141440000391 kts
2026-09-06T07:23:21.846933+00:002026-09-06 01:23:2146.7025, 21.755140000379 kts
2026-09-06T07:38:25.449831+00:002026-09-06 01:38:2547.6362, 20.043440000363 kts
2026-09-06T07:53:26.459969+00:002026-09-06 01:53:2648.5970, 18.236439975377 kts
2026-09-06T08:08:20.880421+00:002026-09-06 02:08:2049.2977, 16.124740000386 kts
2026-09-06T08:23:22.689904+00:002026-09-06 02:23:2249.8182, 13.757640000393 kts
2026-09-06T08:38:23.597906+00:002026-09-06 02:38:2350.1535, 11.300725275353 kts
2026-09-06T08:53:24.159234+00:002026-09-06 02:53:2449.8081, 8.967116000372 kts
2026-09-06T09:08:23.714107+00:002026-09-06 03:08:2349.4351, 7.15023675189 kts
⚠️ No signal from 2026-09-06 03:08:23 to 2026-09-06 08:53:20 (dark for ~5.7h)
2026-09-06T14:53:20.629409+00:002026-09-06 08:53:2049.4449, 7.69033450194 kts
2026-09-06T15:08:20.466799+00:002026-09-06 09:08:2050.1575, 6.012034375420 kts
2026-09-06T15:23:25.301620+00:002026-09-06 09:23:2551.0402, 3.643736000417 kts
2026-09-06T15:38:26.986018+00:002026-09-06 09:38:2651.5541, 0.990836000426 kts
2026-09-06T15:53:21.958610+00:002026-09-06 09:53:2152.1530, -1.752836000441 kts
2026-09-06T16:08:20.280423+00:002026-09-06 10:08:2052.8405, -4.518836000438 kts
2026-09-06T16:23:24.220440+00:002026-09-06 10:23:2453.6223, -7.232136000439 kts
2026-09-06T16:38:20.527343+00:002026-09-06 10:38:2054.3888, -10.012036000443 kts
2026-09-06T16:53:20.268850+00:002026-09-06 10:53:2055.0287, -12.754335975397 kts